KFMN/FMN METAR and TAF weather

Enter ICAO airport designator
Station Type Date Time Source
KFMN METAR 2021/05/13 18:53 UTC NOAA

KFMN 131853Z 10SM CLR 27/M13 A3019 RMK AO2 SLP180 T02671133


Station Type Date Time Source
KFMN Decoded METAR 2021/05/13 18:53 UTC NOAA

FARMINGTON FOUR CORNERS, NM, United States (KFMN) 36-45N 108-14W 1685M
May 13, 2021 - 02:53 PM EDT / 2021.05.13 1853 UTC
Visibility: 10 mile(s):0
Sky conditions: clear
Temperature: 80.1 F (26.7 C)
Dew Point: 8.1 F (-13.3 C)
Relative Humidity: 6%
Pressure (altimeter): 30.19 in. Hg (1022 hPa)
ob: KFMN 131853Z 10SM CLR 27/M13 A3019 RMK AO2 SLP180 T02671133
cycle: 19

Station Type Date Time Source
KFMN TAF 2021/05/13 18:30 UTC NOAA

TAF KFMN 131728Z 1318/1418 VRB05KT P6SM SKC
FM132200 26011G16KT P6SM SKC
FM140200 33009KT P6SM SKC
FM141200 09008KT P6SM FEW250
FM141700 16008KT P6SM FEW250

Example: see airport list